sensor_id;sensor_type;location;lat;lon;timestamp;P1;durP1;ratioP1;P2;durP2;ratioP2
1346;SDS011;667;48.796;9.480;2022-11-15T00:01:45;4.90;;;3.57;;
1346;SDS011;667;48.796;9.480;2022-11-15T00:04:10;4.13;;;3.70;;
1346;SDS011;667;48.796;9.480;2022-11-15T00:06:36;4.40;;;4.00;;
1346;SDS011;667;48.796;9.480;2022-11-15T00:09:01;7.93;;;4.90;;
1346;SDS011;667;48.796;9.480;2022-11-15T00:11:27;6.50;;;4.43;;
1346;SDS011;667;48.796;9.480;2022-11-15T00:13:56;4.97;;;4.47;;
1346;SDS011;667;48.796;9.480;2022-11-15T00:16:23;5.40;;;4.70;;
1346;SDS011;667;48.796;9.480;2022-11-15T00:18:49;6.35;;;5.20;;
1346;SDS011;667;48.796;9.480;2022-11-15T00:21:15;4.75;;;4.35;;
1346;SDS011;667;48.796;9.480;2022-11-15T00:23:41;6.47;;;4.93;;
1346;SDS011;667;48.796;9.480;2022-11-15T00:26:07;5.87;;;4.70;;
1346;SDS011;667;48.796;9.480;2022-11-15T00:28:37;5.72;;;4.53;;
1346;SDS011;667;48.796;9.480;2022-11-15T00:31:04;3.90;;;3.60;;
1346;SDS011;667;48.796;9.480;2022-11-15T00:33:31;5.45;;;4.15;;
1346;SDS011;667;48.796;9.480;2022-11-15T00:36:02;4.63;;;4.13;;
1346;SDS011;667;48.796;9.480;2022-11-15T00:38:33;4.90;;;4.43;;
1346;SDS011;667;48.796;9.480;2022-11-15T00:40:59;6.35;;;4.40;;
1346;SDS011;667;48.796;9.480;2022-11-15T00:43:25;5.75;;;4.55;;
1346;SDS011;667;48.796;9.480;2022-11-15T00:45:51;5.10;;;4.40;;
1346;SDS011;667;48.796;9.480;2022-11-15T00:48:16;5.13;;;4.47;;
1346;SDS011;667;48.796;9.480;2022-11-15T00:50:42;4.53;;;4.10;;
1346;SDS011;667;48.796;9.480;2022-11-15T00:53:08;6.37;;;4.67;;
1346;SDS011;667;48.796;9.480;2022-11-15T00:55:33;5.33;;;4.83;;
1346;SDS011;667;48.796;9.480;2022-11-15T00:57:59;9.03;;;4.30;;
1346;SDS011;667;48.796;9.480;2022-11-15T01:00:24;6.00;;;5.40;;
1346;SDS011;667;48.796;9.480;2022-11-15T01:02:50;6.27;;;4.60;;
1346;SDS011;667;48.796;9.480;2022-11-15T01:05:16;6.83;;;4.97;;
1346;SDS011;667;48.796;9.480;2022-11-15T01:07:41;7.10;;;4.83;;
1346;SDS011;667;48.796;9.480;2022-11-15T01:10:07;5.47;;;4.10;;
1346;SDS011;667;48.796;9.480;2022-11-15T01:12:33;5.03;;;4.43;;
1346;SDS011;667;48.796;9.480;2022-11-15T01:14:59;5.17;;;4.23;;
1346;SDS011;667;48.796;9.480;2022-11-15T01:17:24;4.97;;;4.47;;
1346;SDS011;667;48.796;9.480;2022-11-15T01:19:50;7.03;;;5.30;;
1346;SDS011;667;48.796;9.480;2022-11-15T01:22:16;4.80;;;4.30;;
1346;SDS011;667;48.796;9.480;2022-11-15T01:24:42;5.72;;;4.22;;
1346;SDS011;667;48.796;9.480;2022-11-15T01:27:07;4.10;;;3.70;;
1346;SDS011;667;48.796;9.480;2022-11-15T01:29:33;4.67;;;4.10;;
1346;SDS011;667;48.796;9.480;2022-11-15T01:31:59;5.33;;;3.90;;
1346;SDS011;667;48.796;9.480;2022-11-15T01:34:24;4.10;;;3.67;;
1346;SDS011;667;48.796;9.480;2022-11-15T01:36:50;5.13;;;4.53;;
1346;SDS011;667;48.796;9.480;2022-11-15T01:39:15;4.30;;;3.90;;
1346;SDS011;667;48.796;9.480;2022-11-15T01:41:41;4.20;;;3.67;;
1346;SDS011;667;48.796;9.480;2022-11-15T01:46:58;5.07;;;3.83;;
1346;SDS011;667;48.796;9.480;2022-11-15T01:49:26;8.18;;;3.75;;
1346;SDS011;667;48.796;9.480;2022-11-15T01:51:57;6.32;;;3.78;;
1346;SDS011;667;48.796;9.480;2022-11-15T01:54:24;4.20;;;3.70;;
1346;SDS011;667;48.796;9.480;2022-11-15T01:56:53;3.88;;;3.45;;
1346;SDS011;667;48.796;9.480;2022-11-15T01:59:28;5.88;;;3.60;;
1346;SDS011;667;48.796;9.480;2022-11-15T02:01:54;4.70;;;3.70;;
1346;SDS011;667;48.796;9.480;2022-11-15T02:04:22;3.40;;;3.10;;
1346;SDS011;667;48.796;9.480;2022-11-15T02:06:56;4.70;;;3.75;;
1346;SDS011;667;48.796;9.480;2022-11-15T02:09:23;3.65;;;3.30;;
1346;SDS011;667;48.796;9.480;2022-11-15T02:11:48;3.40;;;3.03;;
1346;SDS011;667;48.796;9.480;2022-11-15T02:14:15;3.90;;;3.45;;
1346;SDS011;667;48.796;9.480;2022-11-15T02:16:48;4.15;;;3.00;;
1346;SDS011;667;48.796;9.480;2022-11-15T02:40:57;2.90;;;2.60;;
1346;SDS011;667;48.796;9.480;2022-11-15T02:43:26;4.38;;;3.95;;
1346;SDS011;667;48.796;9.480;2022-11-15T02:46:31;3.28;;;2.58;;
1346;SDS011;667;48.796;9.480;2022-11-15T02:49:16;2.95;;;2.58;;
1346;SDS011;667;48.796;9.480;2022-11-15T02:51:44;4.45;;;2.67;;
1346;SDS011;667;48.796;9.480;2022-11-15T02:54:14;3.92;;;2.78;;
1346;SDS011;667;48.796;9.480;2022-11-15T02:56:45;2.75;;;2.55;;
1346;SDS011;667;48.796;9.480;2022-11-15T02:59:19;2.65;;;2.45;;
1346;SDS011;667;48.796;9.480;2022-11-15T03:04:37;3.50;;;2.88;;
1346;SDS011;667;48.796;9.480;2022-11-15T03:07:10;3.72;;;2.70;;
1346;SDS011;667;48.796;9.480;2022-11-15T03:09:54;2.72;;;2.53;;
1346;SDS011;667;48.796;9.480;2022-11-15T03:15:01;2.45;;;2.25;;
1346;SDS011;667;48.796;9.480;2022-11-15T03:17:37;2.58;;;2.38;;
1346;SDS011;667;48.796;9.480;2022-11-15T03:20:16;3.15;;;2.85;;
1346;SDS011;667;48.796;9.480;2022-11-15T03:22:44;2.65;;;2.22;;
1346;SDS011;667;48.796;9.480;2022-11-15T03:25:13;3.58;;;2.85;;
1346;SDS011;667;48.796;9.480;2022-11-15T03:27:44;2.88;;;2.45;;
1346;SDS011;667;48.796;9.480;2022-11-15T03:30:13;2.90;;;2.70;;
1346;SDS011;667;48.796;9.480;2022-11-15T03:32:48;3.80;;;2.75;;
1346;SDS011;667;48.796;9.480;2022-11-15T03:35:23;2.90;;;2.30;;
1346;SDS011;667;48.796;9.480;2022-11-15T03:37:54;4.75;;;2.55;;
1346;SDS011;667;48.796;9.480;2022-11-15T03:40:40;8.02;;;2.42;;
1346;SDS011;667;48.796;9.480;2022-11-15T03:46:06;3.03;;;2.33;;
1346;SDS011;667;48.796;9.480;2022-11-15T03:48:40;6.90;;;3.05;;
1346;SDS011;667;48.796;9.480;2022-11-15T03:51:15;3.22;;;2.92;;
1346;SDS011;667;48.796;9.480;2022-11-15T03:53:41;2.63;;;2.42;;
1346;SDS011;667;48.796;9.480;2022-11-15T03:56:07;3.13;;;2.83;;
1346;SDS011;667;48.796;9.480;2022-11-15T03:58:32;2.10;;;2.00;;
1346;SDS011;667;48.796;9.480;2022-11-15T04:00:58;2.47;;;2.27;;
1346;SDS011;667;48.796;9.480;2022-11-15T04:03:24;2.80;;;2.50;;
1346;SDS011;667;48.796;9.480;2022-11-15T04:05:50;4.40;;;2.87;;
1346;SDS011;667;48.796;9.480;2022-11-15T04:08:15;3.30;;;2.60;;
1346;SDS011;667;48.796;9.480;2022-11-15T04:10:41;2.57;;;2.37;;
1346;SDS011;667;48.796;9.480;2022-11-15T04:13:07;2.37;;;2.17;;
1346;SDS011;667;48.796;9.480;2022-11-15T04:15:32;3.33;;;2.10;;
1346;SDS011;667;48.796;9.480;2022-11-15T04:17:58;3.90;;;2.90;;
1346;SDS011;667;48.796;9.480;2022-11-15T04:20:28;3.07;;;2.87;;
1346;SDS011;667;48.796;9.480;2022-11-15T04:23:18;3.50;;;2.63;;
1346;SDS011;667;48.796;9.480;2022-11-15T04:26:04;2.67;;;2.47;;
1346;SDS011;667;48.796;9.480;2022-11-15T04:28:36;4.20;;;2.35;;
1346;SDS011;667;48.796;9.480;2022-11-15T04:31:24;2.70;;;2.50;;
1346;SDS011;667;48.796;9.480;2022-11-15T04:33:50;3.37;;;2.20;;
1346;SDS011;667;48.796;9.480;2022-11-15T04:36:15;2.97;;;2.67;;
1346;SDS011;667;48.796;9.480;2022-11-15T04:39:00;3.05;;;2.75;;
1346;SDS011;667;48.796;9.480;2022-11-15T04:41:25;5.90;;;3.03;;
1346;SDS011;667;48.796;9.480;2022-11-15T04:43:51;3.63;;;2.67;;
1346;SDS011;667;48.796;9.480;2022-11-15T04:46:16;3.90;;;2.40;;
1346;SDS011;667;48.796;9.480;2022-11-15T04:48:42;3.53;;;2.70;;
1346;SDS011;667;48.796;9.480;2022-11-15T04:51:08;3.80;;;3.43;;
1346;SDS011;667;48.796;9.480;2022-11-15T04:53:33;3.70;;;3.40;;
1346;SDS011;667;48.796;9.480;2022-11-15T04:55:59;3.13;;;2.83;;
1346;SDS011;667;48.796;9.480;2022-11-15T04:58:24;5.13;;;3.17;;
1346;SDS011;667;48.796;9.480;2022-11-15T05:00:50;3.83;;;2.80;;
1346;SDS011;667;48.796;9.480;2022-11-15T05:03:16;3.73;;;3.40;;
1346;SDS011;667;48.796;9.480;2022-11-15T05:06:00;2.83;;;2.63;;
1346;SDS011;667;48.796;9.480;2022-11-15T05:08:25;3.37;;;3.07;;
1346;SDS011;667;48.796;9.480;2022-11-15T05:10:51;3.40;;;3.10;;
1346;SDS011;667;48.796;9.480;2022-11-15T05:13:17;4.50;;;3.67;;
1346;SDS011;667;48.796;9.480;2022-11-15T05:15:42;3.87;;;3.30;;
1346;SDS011;667;48.796;9.480;2022-11-15T05:18:08;3.20;;;2.67;;
1346;SDS011;667;48.796;9.480;2022-11-15T05:20:34;4.03;;;2.73;;
1346;SDS011;667;48.796;9.480;2022-11-15T05:22:59;3.27;;;2.97;;
1346;SDS011;667;48.796;9.480;2022-11-15T05:25:25;3.87;;;3.40;;
1346;SDS011;667;48.796;9.480;2022-11-15T05:27:51;5.40;;;2.73;;
1346;SDS011;667;48.796;9.480;2022-11-15T05:30:16;2.90;;;2.57;;
1346;SDS011;667;48.796;9.480;2022-11-15T05:32:42;4.70;;;3.50;;
1346;SDS011;667;48.796;9.480;2022-11-15T05:35:10;5.13;;;3.20;;
1346;SDS011;667;48.796;9.480;2022-11-15T05:37:40;3.42;;;3.13;;
1346;SDS011;667;48.796;9.480;2022-11-15T05:40:06;4.27;;;3.10;;
1346;SDS011;667;48.796;9.480;2022-11-15T05:42:32;3.20;;;2.90;;
1346;SDS011;667;48.796;9.480;2022-11-15T05:44:58;3.27;;;3.00;;
1346;SDS011;667;48.796;9.480;2022-11-15T05:47:25;2.78;;;2.38;;
1346;SDS011;667;48.796;9.480;2022-11-15T05:49:54;2.95;;;2.72;;
1346;SDS011;667;48.796;9.480;2022-11-15T05:52:21;3.88;;;3.58;;
1346;SDS011;667;48.796;9.480;2022-11-15T05:54:50;3.28;;;2.97;;
1346;SDS011;667;48.796;9.480;2022-11-15T05:57:16;3.30;;;3.00;;
1346;SDS011;667;48.796;9.480;2022-11-15T05:59:43;3.38;;;3.08;;
1346;SDS011;667;48.796;9.480;2022-11-15T06:02:09;3.13;;;2.77;;
1346;SDS011;667;48.796;9.480;2022-11-15T06:04:35;3.55;;;2.75;;
1346;SDS011;667;48.796;9.480;2022-11-15T06:07:01;2.90;;;2.70;;
1346;SDS011;667;48.796;9.480;2022-11-15T06:09:29;3.03;;;2.53;;
1346;SDS011;667;48.796;9.480;2022-11-15T06:11:55;4.17;;;3.03;;
1346;SDS011;667;48.796;9.480;2022-11-15T06:14:20;2.70;;;2.50;;
1346;SDS011;667;48.796;9.480;2022-11-15T06:16:46;3.00;;;2.63;;
1346;SDS011;667;48.796;9.480;2022-11-15T06:19:11;3.40;;;3.10;;
1346;SDS011;667;48.796;9.480;2022-11-15T06:21:37;2.80;;;2.60;;
1346;SDS011;667;48.796;9.480;2022-11-15T06:24:03;3.00;;;2.57;;
1346;SDS011;667;48.796;9.480;2022-11-15T06:26:29;2.70;;;2.50;;
1346;SDS011;667;48.796;9.480;2022-11-15T06:28:55;3.20;;;3.00;;
1346;SDS011;667;48.796;9.480;2022-11-15T06:31:20;2.80;;;2.60;;
1346;SDS011;667;48.796;9.480;2022-11-15T06:33:46;2.47;;;2.13;;
1346;SDS011;667;48.796;9.480;2022-11-15T06:36:13;3.42;;;2.80;;
1346;SDS011;667;48.796;9.480;2022-11-15T06:38:41;3.70;;;2.88;;
1346;SDS011;667;48.796;9.480;2022-11-15T06:41:07;6.23;;;3.60;;
1346;SDS011;667;48.796;9.480;2022-11-15T06:43:34;4.47;;;3.22;;
1346;SDS011;667;48.796;9.480;2022-11-15T06:46:00;4.00;;;3.10;;
1346;SDS011;667;48.796;9.480;2022-11-15T06:48:27;4.35;;;3.28;;
1346;SDS011;667;48.796;9.480;2022-11-15T06:50:55;4.45;;;2.67;;
1346;SDS011;667;48.796;9.480;2022-11-15T06:53:22;3.55;;;3.25;;
1346;SDS011;667;48.796;9.480;2022-11-15T06:55:48;3.00;;;2.80;;
1346;SDS011;667;48.796;9.480;2022-11-15T06:58:14;3.77;;;2.83;;
1346;SDS011;667;48.796;9.480;2022-11-15T07:00:43;3.00;;;2.80;;
1346;SDS011;667;48.796;9.480;2022-11-15T07:03:08;6.23;;;2.20;;
1346;SDS011;667;48.796;9.480;2022-11-15T07:05:34;3.30;;;3.00;;
1346;SDS011;667;48.796;9.480;2022-11-15T07:08:01;3.33;;;2.88;;
1346;SDS011;667;48.796;9.480;2022-11-15T07:10:27;3.20;;;2.65;;
1346;SDS011;667;48.796;9.480;2022-11-15T07:12:53;4.13;;;2.85;;
1346;SDS011;667;48.796;9.480;2022-11-15T07:15:20;4.32;;;2.88;;
1346;SDS011;667;48.796;9.480;2022-11-15T07:17:48;2.80;;;2.50;;
1346;SDS011;667;48.796;9.480;2022-11-15T07:20:14;3.10;;;2.60;;
1346;SDS011;667;48.796;9.480;2022-11-15T07:22:40;5.60;;;2.50;;
1346;SDS011;667;48.796;9.480;2022-11-15T07:25:07;3.88;;;2.72;;
1346;SDS011;667;48.796;9.480;2022-11-15T07:27:34;3.72;;;2.63;;
1346;SDS011;667;48.796;9.480;2022-11-15T07:29:59;9.10;;;2.70;;
1346;SDS011;667;48.796;9.480;2022-11-15T07:32:25;5.23;;;2.73;;
1346;SDS011;667;48.796;9.480;2022-11-15T07:34:51;3.17;;;2.77;;
1346;SDS011;667;48.796;9.480;2022-11-15T07:37:17;2.67;;;2.40;;
1346;SDS011;667;48.796;9.480;2022-11-15T07:39:43;3.47;;;2.73;;
1346;SDS011;667;48.796;9.480;2022-11-15T07:42:09;3.80;;;2.88;;
1346;SDS011;667;48.796;9.480;2022-11-15T07:44:53;3.10;;;2.80;;
1346;SDS011;667;48.796;9.480;2022-11-15T07:47:18;3.30;;;3.00;;
1346;SDS011;667;48.796;9.480;2022-11-15T07:49:45;3.85;;;3.08;;
1346;SDS011;667;48.796;9.480;2022-11-15T07:52:11;3.88;;;2.72;;
1346;SDS011;667;48.796;9.480;2022-11-15T07:54:38;2.63;;;2.30;;
1346;SDS011;667;48.796;9.480;2022-11-15T07:57:03;4.30;;;3.00;;
1346;SDS011;667;48.796;9.480;2022-11-15T07:59:29;3.17;;;2.87;;
1346;SDS011;667;48.796;9.480;2022-11-15T08:01:55;3.20;;;2.90;;
1346;SDS011;667;48.796;9.480;2022-11-15T08:04:20;4.10;;;2.60;;
1346;SDS011;667;48.796;9.480;2022-11-15T08:06:46;2.90;;;2.70;;
1346;SDS011;667;48.796;9.480;2022-11-15T08:09:12;3.20;;;2.90;;
1346;SDS011;667;48.796;9.480;2022-11-15T08:11:37;3.97;;;3.63;;
1346;SDS011;667;48.796;9.480;2022-11-15T08:14:03;4.50;;;4.10;;
1346;SDS011;667;48.796;9.480;2022-11-15T08:16:29;5.03;;;4.50;;
1346;SDS011;667;48.796;9.480;2022-11-15T08:18:54;6.90;;;6.30;;
1346;SDS011;667;48.796;9.480;2022-11-15T08:21:20;7.63;;;6.40;;
1346;SDS011;667;48.796;9.480;2022-11-15T08:23:47;5.50;;;4.97;;
1346;SDS011;667;48.796;9.480;2022-11-15T08:26:12;7.00;;;5.27;;
1346;SDS011;667;48.796;9.480;2022-11-15T08:28:38;6.17;;;5.23;;
1346;SDS011;667;48.796;9.480;2022-11-15T08:31:04;9.20;;;6.07;;
1346;SDS011;667;48.796;9.480;2022-11-15T08:33:30;7.15;;;6.22;;
1346;SDS011;667;48.796;9.480;2022-11-15T08:35:57;6.18;;;5.57;;
1346;SDS011;667;48.796;9.480;2022-11-15T08:38:24;5.70;;;5.20;;
1346;SDS011;667;48.796;9.480;2022-11-15T08:40:53;6.10;;;5.50;;
1346;SDS011;667;48.796;9.480;2022-11-15T08:43:26;6.50;;;5.90;;
1346;SDS011;667;48.796;9.480;2022-11-15T08:45:55;8.50;;;7.63;;
1346;SDS011;667;48.796;9.480;2022-11-15T08:48:21;13.05;;;9.32;;
1346;SDS011;667;48.796;9.480;2022-11-15T08:50:47;10.48;;;8.18;;
1346;SDS011;667;48.796;9.480;2022-11-15T08:53:13;11.80;;;8.17;;
1346;SDS011;667;48.796;9.480;2022-11-15T08:55:38;15.03;;;7.40;;
1346;SDS011;667;48.796;9.480;2022-11-15T08:58:05;6.72;;;6.13;;
1346;SDS011;667;48.796;9.480;2022-11-15T09:00:31;7.57;;;6.40;;
1346;SDS011;667;48.796;9.480;2022-11-15T09:02:57;9.18;;;7.32;;
1346;SDS011;667;48.796;9.480;2022-11-15T09:05:24;9.90;;;5.85;;
1346;SDS011;667;48.796;9.480;2022-11-15T09:07:53;6.75;;;6.05;;
1346;SDS011;667;48.796;9.480;2022-11-15T09:10:19;9.88;;;6.18;;
1346;SDS011;667;48.796;9.480;2022-11-15T09:12:45;6.10;;;5.40;;
1346;SDS011;667;48.796;9.480;2022-11-15T09:15:13;5.32;;;4.50;;
1346;SDS011;667;48.796;9.480;2022-11-15T09:17:39;6.35;;;4.93;;
1346;SDS011;667;48.796;9.480;2022-11-15T09:20:05;5.00;;;4.60;;
1346;SDS011;667;48.796;9.480;2022-11-15T09:22:31;5.17;;;4.67;;
1346;SDS011;667;48.796;9.480;2022-11-15T09:24:57;5.73;;;5.17;;
1346;SDS011;667;48.796;9.480;2022-11-15T09:27:22;6.63;;;6.03;;
1346;SDS011;667;48.796;9.480;2022-11-15T09:29:52;7.10;;;6.40;;
1346;SDS011;667;48.796;9.480;2022-11-15T09:32:17;5.70;;;5.20;;
1346;SDS011;667;48.796;9.480;2022-11-15T09:34:43;7.67;;;5.93;;
1346;SDS011;667;48.796;9.480;2022-11-15T09:37:08;12.83;;;6.23;;
1346;SDS011;667;48.796;9.480;2022-11-15T09:39:34;7.03;;;6.33;;
1346;SDS011;667;48.796;9.480;2022-11-15T09:50:17;9.57;;;6.23;;
1346;SDS011;667;48.796;9.480;2022-11-15T09:53:01;6.83;;;6.23;;
1346;SDS011;667;48.796;9.480;2022-11-15T09:55:35;7.70;;;5.87;;
1346;SDS011;667;48.796;9.480;2022-11-15T09:58:35;6.40;;;5.90;;
1346;SDS011;667;48.796;9.480;2022-11-15T10:01:06;5.23;;;4.73;;
1346;SDS011;667;48.796;9.480;2022-11-15T10:03:41;7.70;;;5.67;;
1346;SDS011;667;48.796;9.480;2022-11-15T10:06:11;5.63;;;5.10;;
1346;SDS011;667;48.796;9.480;2022-11-15T10:08:51;5.67;;;5.13;;
1346;SDS011;667;48.796;9.480;2022-11-15T10:11:26;5.40;;;4.90;;
1346;SDS011;667;48.796;9.480;2022-11-15T10:13:56;5.80;;;5.30;;
1346;SDS011;667;48.796;9.480;2022-11-15T10:17:02;6.00;;;5.40;;
1346;SDS011;667;48.796;9.480;2022-11-15T10:19:38;5.20;;;4.77;;
1346;SDS011;667;48.796;9.480;2022-11-15T10:22:21;4.87;;;4.47;;
1346;SDS011;667;48.796;9.480;2022-11-15T10:24:49;6.93;;;4.40;;
1346;SDS011;667;48.796;9.480;2022-11-15T10:27:17;5.80;;;5.30;;
1346;SDS011;667;48.796;9.480;2022-11-15T10:29:47;5.00;;;4.60;;
1346;SDS011;667;48.796;9.480;2022-11-15T10:32:14;7.30;;;5.00;;
1346;SDS011;667;48.796;9.480;2022-11-15T10:34:42;6.30;;;5.03;;
1346;SDS011;667;48.796;9.480;2022-11-15T10:37:08;5.40;;;4.90;;
1346;SDS011;667;48.796;9.480;2022-11-15T10:39:34;5.80;;;5.30;;
1346;SDS011;667;48.796;9.480;2022-11-15T10:42:16;5.27;;;4.77;;
1346;SDS011;667;48.796;9.480;2022-11-15T10:44:50;7.23;;;5.57;;
1346;SDS011;667;48.796;9.480;2022-11-15T10:47:26;6.73;;;6.07;;
1346;SDS011;667;48.796;9.480;2022-11-15T10:50:27;6.60;;;5.90;;
1346;SDS011;667;48.796;9.480;2022-11-15T10:52:57;6.73;;;5.23;;
1346;SDS011;667;48.796;9.480;2022-11-15T10:55:28;4.70;;;4.30;;
1346;SDS011;667;48.796;9.480;2022-11-15T10:58:00;4.83;;;4.23;;
1346;SDS011;667;48.796;9.480;2022-11-15T11:00:35;5.87;;;5.03;;
1346;SDS011;667;48.796;9.480;2022-11-15T11:03:05;5.30;;;4.80;;
1346;SDS011;667;48.796;9.480;2022-11-15T11:05:48;5.43;;;4.40;;
1346;SDS011;667;48.796;9.480;2022-11-15T11:08:27;5.00;;;4.30;;
1346;SDS011;667;48.796;9.480;2022-11-15T11:10:56;4.73;;;4.27;;
1346;SDS011;667;48.796;9.480;2022-11-15T11:13:24;4.63;;;4.23;;
1346;SDS011;667;48.796;9.480;2022-11-15T11:18:36;6.10;;;5.50;;
1346;SDS011;667;48.796;9.480;2022-11-15T11:21:17;5.87;;;5.30;;
1346;SDS011;667;48.796;9.480;2022-11-15T11:24:06;5.00;;;4.60;;
1346;SDS011;667;48.796;9.480;2022-11-15T11:26:49;4.93;;;4.33;;
1346;SDS011;667;48.796;9.480;2022-11-15T11:29:45;5.60;;;5.07;;
1346;SDS011;667;48.796;9.480;2022-11-15T11:32:54;6.77;;;5.67;;
1346;SDS011;667;48.796;9.480;2022-11-15T11:35:23;5.43;;;4.93;;
1346;SDS011;667;48.796;9.480;2022-11-15T11:40:36;5.90;;;4.60;;
1346;SDS011;667;48.796;9.480;2022-11-15T11:51:13;7.20;;;5.53;;
1346;SDS011;667;48.796;9.480;2022-11-15T11:57:03;8.70;;;6.70;;
1346;SDS011;667;48.796;9.480;2022-11-15T11:59:41;5.70;;;5.20;;
1346;SDS011;667;48.796;9.480;2022-11-15T12:02:30;7.50;;;5.97;;
1346;SDS011;667;48.796;9.480;2022-11-15T12:05:10;5.93;;;5.33;;
1346;SDS011;667;48.796;9.480;2022-11-15T12:07:47;6.67;;;5.50;;
1346;SDS011;667;48.796;9.480;2022-11-15T12:10:23;7.17;;;6.47;;
1346;SDS011;667;48.796;9.480;2022-11-15T12:13:04;6.90;;;6.27;;
1346;SDS011;667;48.796;9.480;2022-11-15T12:15:32;6.17;;;5.57;;
1346;SDS011;667;48.796;9.480;2022-11-15T12:18:04;7.90;;;6.43;;
1346;SDS011;667;48.796;9.480;2022-11-15T12:20:33;8.70;;;5.57;;
1346;SDS011;667;48.796;9.480;2022-11-15T12:23:15;6.00;;;5.50;;
1346;SDS011;667;48.796;9.480;2022-11-15T12:25:50;6.63;;;6.03;;
1346;SDS011;667;48.796;9.480;2022-11-15T12:33:55;6.03;;;5.47;;
1346;SDS011;667;48.796;9.480;2022-11-15T12:41:34;4.90;;;4.40;;
1346;SDS011;667;48.796;9.480;2022-11-15T13:04:55;6.30;;;5.17;;
1346;SDS011;667;48.796;9.480;2022-11-15T13:28:31;5.07;;;3.80;;
1346;SDS011;667;48.796;9.480;2022-11-15T13:31:01;4.07;;;3.53;;
1346;SDS011;667;48.796;9.480;2022-11-15T13:33:38;4.90;;;4.03;;
1346;SDS011;667;48.796;9.480;2022-11-15T13:38:42;5.10;;;4.70;;
1346;SDS011;667;48.796;9.480;2022-11-15T13:41:17;4.73;;;4.30;;
1346;SDS011;667;48.796;9.480;2022-11-15T13:43:46;6.50;;;4.60;;
1346;SDS011;667;48.796;9.480;2022-11-15T13:46:13;7.67;;;5.13;;
1346;SDS011;667;48.796;9.480;2022-11-15T13:48:41;5.30;;;4.83;;
1346;SDS011;667;48.796;9.480;2022-11-15T13:51:28;6.10;;;4.23;;
1346;SDS011;667;48.796;9.480;2022-11-15T13:56:45;5.40;;;4.90;;
1346;SDS011;667;48.796;9.480;2022-11-15T13:59:21;4.50;;;4.10;;
1346;SDS011;667;48.796;9.480;2022-11-15T14:01:49;4.17;;;3.77;;
1346;SDS011;667;48.796;9.480;2022-11-15T14:04:17;3.43;;;3.20;;
1346;SDS011;667;48.796;9.480;2022-11-15T14:06:46;3.80;;;3.30;;
1346;SDS011;667;48.796;9.480;2022-11-15T14:09:16;4.90;;;4.20;;
1346;SDS011;667;48.796;9.480;2022-11-15T14:11:57;5.00;;;3.20;;
1346;SDS011;667;48.796;9.480;2022-11-15T14:14:25;4.00;;;3.43;;
1346;SDS011;667;48.796;9.480;2022-11-15T14:16:56;3.93;;;3.50;;
1346;SDS011;667;48.796;9.480;2022-11-15T14:24:36;6.93;;;4.70;;
1346;SDS011;667;48.796;9.480;2022-11-15T14:29:46;4.57;;;4.17;;
1346;SDS011;667;48.796;9.480;2022-11-15T14:34:46;3.90;;;3.60;;
1346;SDS011;667;48.796;9.480;2022-11-15T14:37:18;4.80;;;3.70;;
1346;SDS011;667;48.796;9.480;2022-11-15T14:39:49;7.43;;;3.63;;
1346;SDS011;667;48.796;9.480;2022-11-15T14:42:15;5.97;;;3.50;;
1346;SDS011;667;48.796;9.480;2022-11-15T14:44:41;3.40;;;3.07;;
1346;SDS011;667;48.796;9.480;2022-11-15T14:47:06;3.80;;;3.30;;
1346;SDS011;667;48.796;9.480;2022-11-15T14:49:32;4.17;;;3.40;;
1346;SDS011;667;48.796;9.480;2022-11-15T14:51:57;3.70;;;3.30;;
1346;SDS011;667;48.796;9.480;2022-11-15T14:54:23;4.53;;;4.13;;
1346;SDS011;667;48.796;9.480;2022-11-15T14:56:48;3.60;;;3.20;;
1346;SDS011;667;48.796;9.480;2022-11-15T14:59:14;4.47;;;3.63;;
1346;SDS011;667;48.796;9.480;2022-11-15T15:01:39;7.90;;;3.90;;
1346;SDS011;667;48.796;9.480;2022-11-15T15:04:05;4.87;;;4.40;;
1346;SDS011;667;48.796;9.480;2022-11-15T15:06:31;4.53;;;3.90;;
1346;SDS011;667;48.796;9.480;2022-11-15T15:08:56;4.17;;;3.87;;
1346;SDS011;667;48.796;9.480;2022-11-15T15:11:23;5.30;;;4.80;;
1346;SDS011;667;48.796;9.480;2022-11-15T15:13:50;4.63;;;4.13;;
1346;SDS011;667;48.796;9.480;2022-11-15T15:16:17;6.43;;;4.40;;
1346;SDS011;667;48.796;9.480;2022-11-15T15:18:43;6.80;;;4.50;;
1346;SDS011;667;48.796;9.480;2022-11-15T15:21:17;7.10;;;3.93;;
1346;SDS011;667;48.796;9.480;2022-11-15T15:23:50;6.80;;;4.20;;
1346;SDS011;667;48.796;9.480;2022-11-15T15:26:18;4.25;;;3.85;;
1346;SDS011;667;48.796;9.480;2022-11-15T15:28:44;5.37;;;3.30;;
1346;SDS011;667;48.796;9.480;2022-11-15T15:31:10;4.13;;;3.73;;
1346;SDS011;667;48.796;9.480;2022-11-15T15:33:36;4.50;;;4.07;;
1346;SDS011;667;48.796;9.480;2022-11-15T15:36:02;4.73;;;3.37;;
1346;SDS011;667;48.796;9.480;2022-11-15T15:38:27;4.20;;;3.80;;
1346;SDS011;667;48.796;9.480;2022-11-15T15:40:53;4.77;;;4.07;;
1346;SDS011;667;48.796;9.480;2022-11-15T15:43:19;4.88;;;3.85;;
1346;SDS011;667;48.796;9.480;2022-11-15T15:45:45;4.60;;;4.17;;
1346;SDS011;667;48.796;9.480;2022-11-15T15:48:12;6.33;;;4.10;;
1346;SDS011;667;48.796;9.480;2022-11-15T15:50:38;4.72;;;4.25;;
1346;SDS011;667;48.796;9.480;2022-11-15T15:53:04;13.97;;;8.57;;
1346;SDS011;667;48.796;9.480;2022-11-15T15:55:30;22.20;;;14.60;;
1346;SDS011;667;48.796;9.480;2022-11-15T15:57:56;27.25;;;17.80;;
1346;SDS011;667;48.796;9.480;2022-11-15T16:00:23;19.13;;;13.97;;
1346;SDS011;667;48.796;9.480;2022-11-15T16:02:49;14.93;;;11.70;;
1346;SDS011;667;48.796;9.480;2022-11-15T16:05:15;27.20;;;19.50;;
1346;SDS011;667;48.796;9.480;2022-11-15T16:07:42;27.25;;;18.20;;
1346;SDS011;667;48.796;9.480;2022-11-15T16:10:30;20.90;;;16.15;;
1346;SDS011;667;48.796;9.480;2022-11-15T16:12:56;13.82;;;11.63;;
1346;SDS011;667;48.796;9.480;2022-11-15T16:15:23;13.18;;;11.30;;
1346;SDS011;667;48.796;9.480;2022-11-15T16:17:51;9.73;;;8.73;;
1346;SDS011;667;48.796;9.480;2022-11-15T16:20:32;6.50;;;5.30;;
1346;SDS011;667;48.796;9.480;2022-11-15T16:23:21;5.32;;;4.10;;
1346;SDS011;667;48.796;9.480;2022-11-15T16:25:50;3.58;;;2.80;;
1346;SDS011;667;48.796;9.480;2022-11-15T16:30:47;4.90;;;3.60;;
1346;SDS011;667;48.796;9.480;2022-11-15T16:33:14;3.05;;;2.75;;
1346;SDS011;667;48.796;9.480;2022-11-15T16:35:39;9.00;;;4.80;;
1346;SDS011;667;48.796;9.480;2022-11-15T16:38:05;3.07;;;2.83;;
1346;SDS011;667;48.796;9.480;2022-11-15T16:40:33;3.40;;;3.10;;
1346;SDS011;667;48.796;9.480;2022-11-15T16:43:00;4.20;;;3.80;;
1346;SDS011;667;48.796;9.480;2022-11-15T16:45:27;4.07;;;3.75;;
1346;SDS011;667;48.796;9.480;2022-11-15T16:47:53;4.20;;;3.80;;
1346;SDS011;667;48.796;9.480;2022-11-15T16:50:24;5.68;;;3.38;;
1346;SDS011;667;48.796;9.480;2022-11-15T16:52:52;4.18;;;3.88;;
1346;SDS011;667;48.796;9.480;2022-11-15T16:55:20;3.13;;;2.90;;
1346;SDS011;667;48.796;9.480;2022-11-15T16:57:46;5.38;;;3.13;;
1346;SDS011;667;48.796;9.480;2022-11-15T17:00:12;4.27;;;3.53;;
1346;SDS011;667;48.796;9.480;2022-11-15T17:02:42;3.97;;;3.55;;
1346;SDS011;667;48.796;9.480;2022-11-15T17:05:09;5.55;;;3.60;;
1346;SDS011;667;48.796;9.480;2022-11-15T17:07:35;4.50;;;3.35;;
1346;SDS011;667;48.796;9.480;2022-11-15T17:10:01;4.33;;;3.63;;
1346;SDS011;667;48.796;9.480;2022-11-15T17:12:26;4.70;;;3.87;;
1346;SDS011;667;48.796;9.480;2022-11-15T17:14:52;5.82;;;4.60;;
1346;SDS011;667;48.796;9.480;2022-11-15T17:17:18;12.37;;;11.07;;
1346;SDS011;667;48.796;9.480;2022-11-15T17:19:43;18.50;;;13.70;;
1346;SDS011;667;48.796;9.480;2022-11-15T17:22:09;13.53;;;11.20;;
1346;SDS011;667;48.796;9.480;2022-11-15T17:24:34;14.07;;;10.13;;
1346;SDS011;667;48.796;9.480;2022-11-15T17:27:00;8.10;;;5.70;;
1346;SDS011;667;48.796;9.480;2022-11-15T17:29:26;4.37;;;3.97;;
1346;SDS011;667;48.796;9.480;2022-11-15T17:31:51;4.73;;;4.23;;
1346;SDS011;667;48.796;9.480;2022-11-15T17:34:17;4.97;;;4.47;;
1346;SDS011;667;48.796;9.480;2022-11-15T17:36:42;4.90;;;4.40;;
1346;SDS011;667;48.796;9.480;2022-11-15T17:39:08;7.50;;;3.40;;
1346;SDS011;667;48.796;9.480;2022-11-15T17:41:33;4.63;;;3.87;;
1346;SDS011;667;48.796;9.480;2022-11-15T17:43:59;5.20;;;4.70;;
1346;SDS011;667;48.796;9.480;2022-11-15T17:46:27;5.53;;;4.63;;
1346;SDS011;667;48.796;9.480;2022-11-15T17:48:53;4.78;;;4.38;;
1346;SDS011;667;48.796;9.480;2022-11-15T17:51:20;7.28;;;5.45;;